Terminal Aerodrome Forecast
Issued by NWS

Home | Current Version | Previous Version | Text Only | Print | Product List | Glossary Off
Versions: 1 2 3 4 5 6 7 8 9 10 11 12 13 14 15

071
FTUS43 KMPX 082320
TAFRNH
TAF
KRNH 082320Z 0900/0924 32014G21KT 6SM -SN BKN030
      TEMPO 0900/0904 4SM -SN OVC025
     FM090400 32014G22KT P6SM BKN025
     FM091600 33014G20KT P6SM SCT030=

USA.gov is the U.S. government's official web portal to all federal, state and local government web resources and services.